LSZH/ZRH METAR and TAF weather

Enter ICAO airport designator
Station Type Date Time Source
LSZH METAR 2020/01/28 20:50 UTC NOAA

LSZH 282050Z 21006KT 9999 -SHRA FEW034 BKN045 03/M00 Q1009 RESNRA NOSIG


Station Type Date Time Source
LSZH Decoded METAR 2020/01/28 20:50 UTC NOAA

Zurich-Kloten, Switzerland (LSZH) 47-29N 008-32E 432M
Jan 28, 2020 - 03:50 PM EST / 2020.01.28 2050 UTC
Wind: from the SSW (210 degrees) at 7 MPH (6 KT):0
Visibility: greater than 7 mile(s):0
Sky conditions: mostly cloudy
Weather: light rain showers
Temperature: 37 F (3 C)
Dew Point: 32 F (0 C)
Relative Humidity: 80%
Pressure (altimeter): 29.80 in. Hg (1009 hPa)
ob: LSZH 282050Z 21006KT 9999 -SHRA FEW034 BKN045 03/M00 Q1009 RESNRA NOSIG
cycle: 21

Station Type Date Time Source
LSZH TAF 2020/01/28 21:36 UTC NOAA

TAF LSZH 282025Z 2821/3003 24007KT 9999 FEW010 SCT040 TX05/2915Z TN01/2905Z
TEMPO 2821/2908 23015G25KT 4000 SHRASN PROB40
TEMPO 2821/2908 29020G35KT 1200 SHSNRA FEW010TCU BKN012
TEMPO 2908/2921 23012G25KT SHRA

Example: see airport list